sensor_id;sensor_type;location;lat;lon;timestamp;temperature;humidity
22416;DHT22;12204;50.600;4.608;2023-02-25T00:05:00;16.90;73.20
22416;DHT22;12204;50.600;4.608;2023-02-25T00:10:08;16.90;73.20
22416;DHT22;12204;50.600;4.608;2023-02-25T00:15:14;16.90;73.20
22416;DHT22;12204;50.600;4.608;2023-02-25T00:20:19;16.90;73.20
22416;DHT22;12204;50.600;4.608;2023-02-25T00:25:23;16.90;73.20
22416;DHT22;12204;50.600;4.608;2023-02-25T00:30:29;17.00;73.20
22416;DHT22;12204;50.600;4.608;2023-02-25T00:35:37;16.90;73.20
22416;DHT22;12204;50.600;4.608;2023-02-25T00:40:42;16.90;73.10
22416;DHT22;12204;50.600;4.608;2023-02-25T00:45:46;16.90;73.20
22416;DHT22;12204;50.600;4.608;2023-02-25T00:50:50;16.90;73.20
22416;DHT22;12204;50.600;4.608;2023-02-25T00:55:58;16.90;73.20
22416;DHT22;12204;50.600;4.608;2023-02-25T01:01:03;16.90;73.30
22416;DHT22;12204;50.600;4.608;2023-02-25T01:06:10;16.90;73.30
22416;DHT22;12204;50.600;4.608;2023-02-25T01:11:15;16.90;73.20
22416;DHT22;12204;50.600;4.608;2023-02-25T01:16:24;16.90;73.30
22416;DHT22;12204;50.600;4.608;2023-02-25T01:21:34;16.90;73.20
22416;DHT22;12204;50.600;4.608;2023-02-25T01:26:42;16.90;73.30
22416;DHT22;12204;50.600;4.608;2023-02-25T01:31:47;16.90;73.30
22416;DHT22;12204;50.600;4.608;2023-02-25T01:36:56;16.90;73.30
22416;DHT22;12204;50.600;4.608;2023-02-25T01:42:02;16.90;73.20
22416;DHT22;12204;50.600;4.608;2023-02-25T01:47:18;16.90;73.20
22416;DHT22;12204;50.600;4.608;2023-02-25T01:52:24;16.90;73.30
22416;DHT22;12204;50.600;4.608;2023-02-25T01:57:28;16.90;73.70
22416;DHT22;12204;50.600;4.608;2023-02-25T02:02:31;16.90;73.30
22416;DHT22;12204;50.600;4.608;2023-02-25T02:07:40;16.90;73.30
22416;DHT22;12204;50.600;4.608;2023-02-25T02:12:44;16.90;73.30
22416;DHT22;12204;50.600;4.608;2023-02-25T02:17:51;16.90;73.30
22416;DHT22;12204;50.600;4.608;2023-02-25T02:23:25;16.90;73.40
22416;DHT22;12204;50.600;4.608;2023-02-25T02:35:16;16.90;73.20
22416;DHT22;12204;50.600;4.608;2023-02-25T02:40:47;16.90;73.20
22416;DHT22;12204;50.600;4.608;2023-02-25T02:46:00;16.90;73.30
22416;DHT22;12204;50.600;4.608;2023-02-25T02:51:13;16.90;73.30
22416;DHT22;12204;50.600;4.608;2023-02-25T02:56:23;16.80;73.20
22416;DHT22;12204;50.600;4.608;2023-02-25T03:01:31;16.80;73.30
22416;DHT22;12204;50.600;4.608;2023-02-25T03:06:40;16.80;73.30
22416;DHT22;12204;50.600;4.608;2023-02-25T03:11:46;16.90;73.40
22416;DHT22;12204;50.600;4.608;2023-02-25T03:16:55;16.90;73.30
22416;DHT22;12204;50.600;4.608;2023-02-25T03:22:05;16.80;73.30
22416;DHT22;12204;50.600;4.608;2023-02-25T03:27:24;16.80;73.30
22416;DHT22;12204;50.600;4.608;2023-02-25T03:32:36;16.80;73.40
22416;DHT22;12204;50.600;4.608;2023-02-25T03:37:46;16.80;73.30
22416;DHT22;12204;50.600;4.608;2023-02-25T03:42:57;16.80;73.30
22416;DHT22;12204;50.600;4.608;2023-02-25T03:48:08;16.80;73.30
22416;DHT22;12204;50.600;4.608;2023-02-25T03:53:15;16.80;73.30
22416;DHT22;12204;50.600;4.608;2023-02-25T03:58:30;16.80;73.20
22416;DHT22;12204;50.600;4.608;2023-02-25T04:03:34;16.80;73.30
22416;DHT22;12204;50.600;4.608;2023-02-25T04:08:40;16.80;73.30
22416;DHT22;12204;50.600;4.608;2023-02-25T04:13:44;16.80;73.20
22416;DHT22;12204;50.600;4.608;2023-02-25T04:18:47;16.80;73.20
22416;DHT22;12204;50.600;4.608;2023-02-25T04:23:52;16.80;73.20
22416;DHT22;12204;50.600;4.608;2023-02-25T04:28:56;16.80;73.30
22416;DHT22;12204;50.600;4.608;2023-02-25T04:33:59;16.80;73.30
22416;DHT22;12204;50.600;4.608;2023-02-25T04:39:04;16.80;73.30
22416;DHT22;12204;50.600;4.608;2023-02-25T04:44:08;16.80;73.30
22416;DHT22;12204;50.600;4.608;2023-02-25T04:49:12;16.80;73.30
22416;DHT22;12204;50.600;4.608;2023-02-25T04:54:17;16.80;73.20
22416;DHT22;12204;50.600;4.608;2023-02-25T04:59:21;16.80;73.20
22416;DHT22;12204;50.600;4.608;2023-02-25T05:04:27;16.80;73.30
22416;DHT22;12204;50.600;4.608;2023-02-25T05:09:32;16.80;73.30
22416;DHT22;12204;50.600;4.608;2023-02-25T05:14:36;16.80;73.20
22416;DHT22;12204;50.600;4.608;2023-02-25T05:19:40;16.80;73.20
22416;DHT22;12204;50.600;4.608;2023-02-25T05:24:45;16.80;73.30
22416;DHT22;12204;50.600;4.608;2023-02-25T05:29:48;16.80;73.30
22416;DHT22;12204;50.600;4.608;2023-02-25T05:34:52;16.80;73.20
22416;DHT22;12204;50.600;4.608;2023-02-25T05:39:57;16.80;73.30
22416;DHT22;12204;50.600;4.608;2023-02-25T05:45:00;16.80;73.20
22416;DHT22;12204;50.600;4.608;2023-02-25T05:50:04;16.70;73.20
22416;DHT22;12204;50.600;4.608;2023-02-25T05:55:10;16.70;73.20
22416;DHT22;12204;50.600;4.608;2023-02-25T06:00:15;16.80;73.30
22416;DHT22;12204;50.600;4.608;2023-02-25T06:05:22;16.70;73.20
22416;DHT22;12204;50.600;4.608;2023-02-25T06:10:27;16.80;73.20
22416;DHT22;12204;50.600;4.608;2023-02-25T06:15:30;16.70;73.20
22416;DHT22;12204;50.600;4.608;2023-02-25T06:20:34;16.70;73.20
22416;DHT22;12204;50.600;4.608;2023-02-25T06:25:38;16.80;73.20
22416;DHT22;12204;50.600;4.608;2023-02-25T06:30:42;16.70;73.20
22416;DHT22;12204;50.600;4.608;2023-02-25T06:35:49;16.70;73.30
22416;DHT22;12204;50.600;4.608;2023-02-25T06:40:55;16.80;73.30
22416;DHT22;12204;50.600;4.608;2023-02-25T06:45:58;16.80;73.30
22416;DHT22;12204;50.600;4.608;2023-02-25T06:51:07;16.70;73.20
22416;DHT22;12204;50.600;4.608;2023-02-25T06:56:14;16.70;73.30
22416;DHT22;12204;50.600;4.608;2023-02-25T07:01:20;16.70;73.30
22416;DHT22;12204;50.600;4.608;2023-02-25T07:06:24;16.70;73.30
22416;DHT22;12204;50.600;4.608;2023-02-25T07:11:30;16.70;73.20
22416;DHT22;12204;50.600;4.608;2023-02-25T07:16:35;16.70;73.20
22416;DHT22;12204;50.600;4.608;2023-02-25T07:21:39;16.70;73.20
22416;DHT22;12204;50.600;4.608;2023-02-25T07:26:43;16.70;73.30
22416;DHT22;12204;50.600;4.608;2023-02-25T07:31:47;16.70;73.20
22416;DHT22;12204;50.600;4.608;2023-02-25T07:36:50;16.70;73.20
22416;DHT22;12204;50.600;4.608;2023-02-25T07:41:55;16.70;73.20
22416;DHT22;12204;50.600;4.608;2023-02-25T07:46:59;16.70;73.10
22416;DHT22;12204;50.600;4.608;2023-02-25T07:52:03;16.70;73.20
22416;DHT22;12204;50.600;4.608;2023-02-25T07:57:08;16.70;73.10
22416;DHT22;12204;50.600;4.608;2023-02-25T08:02:11;16.70;73.10
22416;DHT22;12204;50.600;4.608;2023-02-25T08:07:15;16.80;73.20
22416;DHT22;12204;50.600;4.608;2023-02-25T08:12:20;16.70;73.10
22416;DHT22;12204;50.600;4.608;2023-02-25T08:17:23;16.70;73.10
22416;DHT22;12204;50.600;4.608;2023-02-25T08:22:31;16.70;73.10
22416;DHT22;12204;50.600;4.608;2023-02-25T08:27:36;16.80;73.20
22416;DHT22;12204;50.600;4.608;2023-02-25T08:32:40;16.70;73.10
22416;DHT22;12204;50.600;4.608;2023-02-25T08:37:44;16.70;73.00
22416;DHT22;12204;50.600;4.608;2023-02-25T08:42:49;16.80;73.10
22416;DHT22;12204;50.600;4.608;2023-02-25T08:47:52;16.70;72.80
22416;DHT22;12204;50.600;4.608;2023-02-25T08:52:56;16.70;72.80
22416;DHT22;12204;50.600;4.608;2023-02-25T08:58:01;16.70;72.80
22416;DHT22;12204;50.600;4.608;2023-02-25T09:03:04;16.70;72.80
22416;DHT22;12204;50.600;4.608;2023-02-25T09:08:08;16.80;72.80
22416;DHT22;12204;50.600;4.608;2023-02-25T09:13:13;16.70;72.70
22416;DHT22;12204;50.600;4.608;2023-02-25T09:18:16;16.70;72.60
22416;DHT22;12204;50.600;4.608;2023-02-25T09:23:20;16.70;72.60
22416;DHT22;12204;50.600;4.608;2023-02-25T09:28:24;16.70;72.60
22416;DHT22;12204;50.600;4.608;2023-02-25T09:33:29;16.80;72.70
22416;DHT22;12204;50.600;4.608;2023-02-25T09:38:33;16.70;72.60
22416;DHT22;12204;50.600;4.608;2023-02-25T09:43:40;16.80;72.60
22416;DHT22;12204;50.600;4.608;2023-02-25T09:48:51;16.80;72.60
22416;DHT22;12204;50.600;4.608;2023-02-25T09:54:07;16.80;72.60
22416;DHT22;12204;50.600;4.608;2023-02-25T09:59:19;16.80;72.60
22416;DHT22;12204;50.600;4.608;2023-02-25T10:04:30;16.80;72.50
22416;DHT22;12204;50.600;4.608;2023-02-25T10:09:42;16.80;72.50
22416;DHT22;12204;50.600;4.608;2023-02-25T10:15:19;16.80;72.50
22416;DHT22;12204;50.600;4.608;2023-02-25T10:20:46;16.80;72.50
22416;DHT22;12204;50.600;4.608;2023-02-25T10:26:03;16.80;72.40
22416;DHT22;12204;50.600;4.608;2023-02-25T10:31:17;16.80;72.40
22416;DHT22;12204;50.600;4.608;2023-02-25T10:36:26;16.80;72.40
22416;DHT22;12204;50.600;4.608;2023-02-25T10:41:34;16.80;72.40
22416;DHT22;12204;50.600;4.608;2023-02-25T10:46:43;16.80;72.40
22416;DHT22;12204;50.600;4.608;2023-02-25T10:52:00;16.80;72.30
22416;DHT22;12204;50.600;4.608;2023-02-25T10:57:07;16.80;72.30
22416;DHT22;12204;50.600;4.608;2023-02-25T11:02:21;16.80;72.40
22416;DHT22;12204;50.600;4.608;2023-02-25T11:07:33;16.80;72.40
22416;DHT22;12204;50.600;4.608;2023-02-25T11:12:45;16.80;72.50
22416;DHT22;12204;50.600;4.608;2023-02-25T11:17:51;16.80;72.50
22416;DHT22;12204;50.600;4.608;2023-02-25T11:22:56;16.80;72.50
22416;DHT22;12204;50.600;4.608;2023-02-25T11:28:01;16.80;72.50
22416;DHT22;12204;50.600;4.608;2023-02-25T11:33:18;16.80;72.50
22416;DHT22;12204;50.600;4.608;2023-02-25T11:38:29;16.80;72.60
22416;DHT22;12204;50.600;4.608;2023-02-25T11:43:38;16.80;72.60
22416;DHT22;12204;50.600;4.608;2023-02-25T11:48:49;16.80;72.60
22416;DHT22;12204;50.600;4.608;2023-02-25T11:54:07;16.80;72.70
22416;DHT22;12204;50.600;4.608;2023-02-25T11:59:30;16.80;72.60
22416;DHT22;12204;50.600;4.608;2023-02-25T12:05:14;16.80;72.90
22416;DHT22;12204;50.600;4.608;2023-02-25T12:10:54;16.80;72.60
22416;DHT22;12204;50.600;4.608;2023-02-25T12:23:15;16.80;72.50
22416;DHT22;12204;50.600;4.608;2023-02-25T12:28:49;16.80;72.40
22416;DHT22;12204;50.600;4.608;2023-02-25T12:34:10;16.80;72.40
22416;DHT22;12204;50.600;4.608;2023-02-25T13:06:02;16.80;72.50
22416;DHT22;12204;50.600;4.608;2023-02-25T13:12:04;16.70;72.50
22416;DHT22;12204;50.600;4.608;2023-02-25T13:18:15;16.80;73.20
22416;DHT22;12204;50.600;4.608;2023-02-25T13:23:38;16.80;72.40
22416;DHT22;12204;50.600;4.608;2023-02-25T13:29:06;16.80;72.40
22416;DHT22;12204;50.600;4.608;2023-02-25T13:34:33;16.80;72.30
22416;DHT22;12204;50.600;4.608;2023-02-25T13:45:45;16.80;72.30
22416;DHT22;12204;50.600;4.608;2023-02-25T13:51:15;16.80;72.40
22416;DHT22;12204;50.600;4.608;2023-02-25T13:56:42;16.80;72.50
22416;DHT22;12204;50.600;4.608;2023-02-25T14:02:07;16.80;72.50
22416;DHT22;12204;50.600;4.608;2023-02-25T14:07:46;16.80;72.50
22416;DHT22;12204;50.600;4.608;2023-02-25T14:13:22;16.80;72.50
22416;DHT22;12204;50.600;4.608;2023-02-25T14:19:05;16.80;72.40
22416;DHT22;12204;50.600;4.608;2023-02-25T14:24:28;16.90;72.20
22416;DHT22;12204;50.600;4.608;2023-02-25T14:29:54;17.00;72.10
22416;DHT22;12204;50.600;4.608;2023-02-25T14:35:33;17.00;72.10
22416;DHT22;12204;50.600;4.608;2023-02-25T14:40:56;17.00;72.00
22416;DHT22;12204;50.600;4.608;2023-02-25T14:46:17;17.00;72.00
22416;DHT22;12204;50.600;4.608;2023-02-25T15:37:29;17.00;72.50
22416;DHT22;12204;50.600;4.608;2023-02-25T15:42:45;17.00;72.50
22416;DHT22;12204;50.600;4.608;2023-02-25T15:48:32;17.00;72.50
22416;DHT22;12204;50.600;4.608;2023-02-25T15:53:42;17.00;72.60
22416;DHT22;12204;50.600;4.608;2023-02-25T15:58:50;17.00;72.60
22416;DHT22;12204;50.600;4.608;2023-02-25T16:03:54;17.00;72.60
22416;DHT22;12204;50.600;4.608;2023-02-25T16:09:06;17.00;72.40
22416;DHT22;12204;50.600;4.608;2023-02-25T16:14:16;17.10;72.50
22416;DHT22;12204;50.600;4.608;2023-02-25T16:19:25;17.10;72.20
22416;DHT22;12204;50.600;4.608;2023-02-25T16:24:35;17.10;72.30
22416;DHT22;12204;50.600;4.608;2023-02-25T16:29:47;17.10;72.30
22416;DHT22;12204;50.600;4.608;2023-02-25T16:35:02;17.20;72.30
22416;DHT22;12204;50.600;4.608;2023-02-25T16:40:24;17.10;72.20
22416;DHT22;12204;50.600;4.608;2023-02-25T16:45:40;17.20;72.30
22416;DHT22;12204;50.600;4.608;2023-02-25T16:50:46;17.20;72.40
22416;DHT22;12204;50.600;4.608;2023-02-25T16:55:58;17.10;72.50
22416;DHT22;12204;50.600;4.608;2023-02-25T17:01:02;17.10;72.60
22416;DHT22;12204;50.600;4.608;2023-02-25T17:06:14;17.10;72.60
22416;DHT22;12204;50.600;4.608;2023-02-25T17:11:23;17.10;73.40
22416;DHT22;12204;50.600;4.608;2023-02-25T17:16:28;17.10;72.80
22416;DHT22;12204;50.600;4.608;2023-02-25T17:21:35;17.00;73.40
22416;DHT22;12204;50.600;4.608;2023-02-25T17:26:41;17.00;72.70
22416;DHT22;12204;50.600;4.608;2023-02-25T17:31:49;17.00;72.80
22416;DHT22;12204;50.600;4.608;2023-02-25T17:36:55;17.00;72.80
22416;DHT22;12204;50.600;4.608;2023-02-25T17:42:08;17.00;72.80
22416;DHT22;12204;50.600;4.608;2023-02-25T17:47:32;17.00;72.80
22416;DHT22;12204;50.600;4.608;2023-02-25T17:52:38;16.90;72.80
22416;DHT22;12204;50.600;4.608;2023-02-25T17:57:43;17.00;72.90
22416;DHT22;12204;50.600;4.608;2023-02-25T18:02:47;16.90;72.80
22416;DHT22;12204;50.600;4.608;2023-02-25T18:08:16;16.90;72.80
22416;DHT22;12204;50.600;4.608;2023-02-25T18:13:27;16.90;72.80
22416;DHT22;12204;50.600;4.608;2023-02-25T18:18:36;16.90;72.90
22416;DHT22;12204;50.600;4.608;2023-02-25T18:23:39;16.90;72.90
22416;DHT22;12204;50.600;4.608;2023-02-25T18:28:44;16.90;72.90
22416;DHT22;12204;50.600;4.608;2023-02-25T18:33:48;16.90;72.90
22416;DHT22;12204;50.600;4.608;2023-02-25T18:38:54;16.90;72.90
22416;DHT22;12204;50.600;4.608;2023-02-25T18:44:04;16.90;72.90
22416;DHT22;12204;50.600;4.608;2023-02-25T18:49:11;16.90;73.00
22416;DHT22;12204;50.600;4.608;2023-02-25T18:54:15;16.90;72.90
22416;DHT22;12204;50.600;4.608;2023-02-25T18:59:20;16.90;73.00
22416;DHT22;12204;50.600;4.608;2023-02-25T19:04:24;16.90;73.00
22416;DHT22;12204;50.600;4.608;2023-02-25T19:09:28;16.80;72.90
22416;DHT22;12204;50.600;4.608;2023-02-25T19:14:32;16.80;72.90
22416;DHT22;12204;50.600;4.608;2023-02-25T19:19:36;16.90;73.00
22416;DHT22;12204;50.600;4.608;2023-02-25T19:24:40;16.80;72.90
22416;DHT22;12204;50.600;4.608;2023-02-25T19:29:45;16.80;72.90
22416;DHT22;12204;50.600;4.608;2023-02-25T19:34:50;16.80;73.00
22416;DHT22;12204;50.600;4.608;2023-02-25T19:39:54;16.80;73.00
22416;DHT22;12204;50.600;4.608;2023-02-25T19:44:59;16.80;73.00
22416;DHT22;12204;50.600;4.608;2023-02-25T19:50:03;16.80;73.00
22416;DHT22;12204;50.600;4.608;2023-02-25T19:55:09;16.80;73.00
22416;DHT22;12204;50.600;4.608;2023-02-25T20:00:17;16.80;73.00
22416;DHT22;12204;50.600;4.608;2023-02-25T20:05:23;16.80;73.10
22416;DHT22;12204;50.600;4.608;2023-02-25T20:10:27;16.80;73.00
22416;DHT22;12204;50.600;4.608;2023-02-25T20:15:32;16.80;73.10
22416;DHT22;12204;50.600;4.608;2023-02-25T20:20:36;16.80;73.10
22416;DHT22;12204;50.600;4.608;2023-02-25T20:25:43;16.80;73.10
22416;DHT22;12204;50.600;4.608;2023-02-25T20:30:48;16.80;73.10
22416;DHT22;12204;50.600;4.608;2023-02-25T20:35:51;16.80;73.10
22416;DHT22;12204;50.600;4.608;2023-02-25T20:40:55;16.80;73.10
22416;DHT22;12204;50.600;4.608;2023-02-25T20:46:01;16.80;73.10
22416;DHT22;12204;50.600;4.608;2023-02-25T20:51:05;16.70;73.10
22416;DHT22;12204;50.600;4.608;2023-02-25T20:56:11;16.80;73.20
22416;DHT22;12204;50.600;4.608;2023-02-25T21:01:17;16.70;73.10
22416;DHT22;12204;50.600;4.608;2023-02-25T21:06:22;16.70;73.10
22416;DHT22;12204;50.600;4.608;2023-02-25T21:11:27;16.70;73.10
22416;DHT22;12204;50.600;4.608;2023-02-25T21:16:33;16.70;73.10
22416;DHT22;12204;50.600;4.608;2023-02-25T21:21:36;16.80;73.20
22416;DHT22;12204;50.600;4.608;2023-02-25T21:26:40;16.70;73.10
22416;DHT22;12204;50.600;4.608;2023-02-25T21:31:46;16.70;73.20
22416;DHT22;12204;50.600;4.608;2023-02-25T21:36:50;16.80;73.20
22416;DHT22;12204;50.600;4.608;2023-02-25T21:41:53;16.70;73.20
22416;DHT22;12204;50.600;4.608;2023-02-25T21:46:59;16.80;73.20
22416;DHT22;12204;50.600;4.608;2023-02-25T21:52:02;16.70;73.10
22416;DHT22;12204;50.600;4.608;2023-02-25T21:57:06;16.70;73.20
22416;DHT22;12204;50.600;4.608;2023-02-25T22:02:11;16.80;73.20
22416;DHT22;12204;50.600;4.608;2023-02-25T22:07:15;16.70;73.10
22416;DHT22;12204;50.600;4.608;2023-02-25T22:12:18;16.70;73.20
22416;DHT22;12204;50.600;4.608;2023-02-25T22:17:23;16.70;73.20
22416;DHT22;12204;50.600;4.608;2023-02-25T22:22:26;16.70;73.20
22416;DHT22;12204;50.600;4.608;2023-02-25T22:27:30;16.70;73.20
22416;DHT22;12204;50.600;4.608;2023-02-25T22:32:35;16.70;73.20
22416;DHT22;12204;50.600;4.608;2023-02-25T22:37:39;16.70;73.30
22416;DHT22;12204;50.600;4.608;2023-02-25T22:42:43;16.70;73.20
22416;DHT22;12204;50.600;4.608;2023-02-25T22:47:47;16.70;73.20
22416;DHT22;12204;50.600;4.608;2023-02-25T22:52:51;16.70;73.30
22416;DHT22;12204;50.600;4.608;2023-02-25T22:57:54;16.70;73.20
22416;DHT22;12204;50.600;4.608;2023-02-25T23:02:59;16.70;73.20
22416;DHT22;12204;50.600;4.608;2023-02-25T23:08:03;16.70;73.30
22416;DHT22;12204;50.600;4.608;2023-02-25T23:13:07;16.70;73.30
22416;DHT22;12204;50.600;4.608;2023-02-25T23:18:14;16.70;73.30
22416;DHT22;12204;50.600;4.608;2023-02-25T23:23:19;16.60;73.20
22416;DHT22;12204;50.600;4.608;2023-02-25T23:28:23;16.70;73.30
22416;DHT22;12204;50.600;4.608;2023-02-25T23:33:28;16.70;73.20
22416;DHT22;12204;50.600;4.608;2023-02-25T23:38:32;16.70;73.30
22416;DHT22;12204;50.600;4.608;2023-02-25T23:43:35;16.60;73.20
22416;DHT22;12204;50.600;4.608;2023-02-25T23:48:40;16.70;73.30
22416;DHT22;12204;50.600;4.608;2023-02-25T23:53:43;16.60;73.20
22416;DHT22;12204;50.600;4.608;2023-02-25T23:58:47;16.60;73.20
